createdAt,value
2017-11-01T00:02:21.271Z,4.53
2017-11-01T00:04:49.895Z,5.53
2017-11-01T00:07:18.736Z,5.13
2017-11-01T00:09:47.739Z,5.40
2017-11-01T00:12:15.230Z,4.43
2017-11-01T00:14:42.732Z,4.60
2017-11-01T00:17:10.233Z,3.87
2017-11-01T00:19:37.731Z,3.23
2017-11-01T00:22:05.619Z,4.17
2017-11-01T00:24:33.891Z,3.03
2017-11-01T00:27:01.400Z,3.53
2017-11-01T00:29:29.291Z,2.90
2017-11-01T00:31:57.932Z,2.70
2017-11-01T00:34:25.440Z,3.20
2017-11-01T00:36:53.709Z,3.23
2017-11-01T00:39:21.975Z,3.17
2017-11-01T00:41:49.591Z,3.90
2017-11-01T00:44:18.220Z,3.00
2017-11-01T00:46:46.110Z,2.33
2017-11-01T00:49:15.118Z,2.43
2017-11-01T00:51:42.615Z,3.70
2017-11-01T00:54:10.507Z,2.80
2017-11-01T00:56:38.003Z,2.80
2017-11-01T00:59:05.490Z,3.53
2017-11-01T01:01:32.988Z,2.73
2017-11-01T01:04:00.501Z,2.60
2017-11-01T01:06:27.992Z,3.20
2017-11-01T01:08:55.484Z,2.60
2017-11-01T01:11:23.754Z,2.50
2017-11-01T01:13:51.266Z,2.07
2017-11-01T01:16:18.784Z,2.60
2017-11-01T01:18:46.679Z,2.37
2017-11-01T01:21:14.967Z,2.20
2017-11-01T01:23:42.467Z,2.70
2017-11-01T01:26:10.764Z,2.60
2017-11-01T01:28:38.262Z,2.77
2017-11-01T01:31:05.771Z,2.50
2017-11-01T01:33:33.275Z,2.10
2017-11-01T01:36:00.792Z,2.50
2017-11-01T01:38:29.057Z,2.70
2017-11-01T01:40:56.972Z,2.50
2017-11-01T01:43:25.606Z,2.50
2017-11-01T01:45:53.903Z,2.37
2017-11-01T01:48:22.185Z,2.70
2017-11-01T01:50:49.702Z,2.10
2017-11-01T01:53:18.698Z,2.70
2017-11-01T01:55:47.553Z,2.57
2017-11-01T01:58:15.063Z,2.37
2017-11-01T02:00:43.335Z,2.60
2017-11-01T02:03:11.231Z,2.67
2017-11-01T02:05:38.728Z,2.80
2017-11-01T02:08:07.727Z,2.67
2017-11-01T02:10:35.230Z,2.20
2017-11-01T02:13:04.081Z,2.33
2017-11-01T02:15:33.088Z,2.37
2017-11-01T02:18:00.579Z,2.27
2017-11-01T02:20:28.078Z,2.50
2017-11-01T02:22:57.080Z,2.70
2017-11-01T02:25:24.583Z,2.27
2017-11-01T02:27:52.080Z,3.03
2017-11-01T02:30:20.338Z,2.27
2017-11-01T02:32:48.228Z,2.70
2017-11-01T02:35:16.133Z,2.00
2017-11-01T02:37:45.143Z,2.37
2017-11-01T02:40:13.036Z,2.73
2017-11-01T02:42:41.295Z,2.50
2017-11-01T02:45:08.785Z,2.47
2017-11-01T02:47:37.057Z,2.47
2017-11-01T02:50:04.552Z,2.63
2017-11-01T02:52:32.048Z,2.50
2017-11-01T02:55:00.679Z,2.50
2017-11-01T02:57:29.530Z,2.43
2017-11-01T02:59:57.023Z,3.27
2017-11-01T03:02:28.375Z,2.83
2017-11-01T03:04:55.867Z,2.57
2017-11-01T03:07:23.374Z,2.73
2017-11-01T03:09:51.654Z,3.67
2017-11-01T03:12:19.180Z,2.40
2017-11-01T03:14:46.679Z,2.50
2017-11-01T03:17:14.578Z,2.90
2017-11-01T03:19:42.062Z,2.30
2017-11-01T03:22:09.574Z,2.30
2017-11-01T03:24:42.883Z,2.70
2017-11-01T03:27:10.400Z,3.80
2017-11-01T03:29:37.903Z,2.40
2017-11-01T03:32:05.421Z,2.37
2017-11-01T03:34:32.930Z,2.40
2017-11-01T03:37:00.451Z,2.30
2017-11-01T03:39:29.456Z,2.83
2017-11-01T03:41:56.973Z,2.80
2017-11-01T03:44:24.478Z,3.10
2017-11-01T03:46:52.780Z,3.57
2017-11-01T03:49:21.039Z,4.47
2017-11-01T03:51:49.682Z,3.57
2017-11-01T03:54:17.176Z,2.70
2017-11-01T03:56:45.459Z,2.93
2017-11-01T03:59:13.347Z,2.90
2017-11-01T04:01:41.266Z,2.40
2017-11-01T04:04:08.772Z,3.20
2017-11-01T04:06:37.787Z,3.13
2017-11-01T04:09:06.779Z,2.57
2017-11-01T04:11:34.303Z,2.20
2017-11-01T04:14:01.796Z,2.50
2017-11-01T04:16:30.057Z,1.90
2017-11-01T04:19:03.281Z,2.40
2017-11-01T04:21:30.770Z,2.73
2017-11-01T04:23:59.623Z,2.37
2017-11-01T04:26:27.119Z,2.03
2017-11-01T04:28:55.011Z,2.23
2017-11-01T04:31:22.504Z,1.70
2017-11-01T04:33:49.994Z,2.70
2017-11-01T04:36:17.487Z,1.87
2017-11-01T04:38:44.979Z,1.93
2017-11-01T04:41:12.480Z,2.03
2017-11-01T04:43:40.742Z,1.60
2017-11-01T04:46:09.008Z,2.13
2017-11-01T04:48:38.015Z,1.77
2017-11-01T04:51:10.432Z,1.60
2017-11-01T04:53:37.932Z,2.00
2017-11-01T04:56:06.196Z,2.17
2017-11-01T04:58:36.541Z,2.00
2017-11-01T05:01:04.431Z,2.40
2017-11-01T05:03:31.931Z,2.30
2017-11-01T05:05:59.430Z,2.43
2017-11-01T05:08:32.519Z,1.80
2017-11-01T05:11:05.622Z,1.70
2017-11-01T05:13:35.033Z,2.13
2017-11-01T05:16:03.369Z,1.87
2017-11-01T05:18:30.888Z,1.83
2017-11-01T05:20:58.385Z,1.57
2017-11-01T05:23:25.905Z,2.20
2017-11-01T05:25:54.999Z,2.73
2017-11-01T05:28:22.523Z,2.17
2017-11-01T05:30:50.424Z,1.83
2017-11-01T05:33:19.301Z,1.93
2017-11-01T05:35:47.567Z,2.10
2017-11-01T05:38:15.080Z,2.10
2017-11-01T05:40:43.712Z,1.80
2017-11-01T05:43:11.224Z,2.20
2017-11-01T05:45:40.922Z,1.80
2017-11-01T05:48:08.440Z,2.10
2017-11-01T05:50:37.431Z,2.33
2017-11-01T05:53:05.360Z,2.50
2017-11-01T05:55:32.863Z,2.30
2017-11-01T05:58:00.377Z,2.10
2017-11-01T06:00:28.277Z,2.10
2017-11-01T06:02:55.804Z,2.67
2017-11-01T06:05:23.303Z,2.20
2017-11-01T06:07:50.820Z,1.83
2017-11-01T06:10:18.316Z,1.87
2017-11-01T06:12:45.836Z,1.80
2017-11-01T06:15:14.840Z,2.10
2017-11-01T06:17:43.120Z,2.43
2017-11-01T06:20:11.592Z,1.60
2017-11-01T06:22:39.503Z,2.57
2017-11-01T06:25:08.527Z,2.47
2017-11-01T06:27:36.826Z,2.60
2017-11-01T06:30:05.080Z,2.33
2017-11-01T06:32:32.906Z,2.27
2017-11-01T06:35:00.407Z,2.77
2017-11-01T06:37:28.683Z,2.30
2017-11-01T06:39:56.959Z,2.50
2017-11-01T06:42:25.810Z,2.20
2017-11-01T06:44:53.728Z,1.90
2017-11-01T06:47:21.234Z,2.87
2017-11-01T06:49:50.235Z,2.37
2017-11-01T06:52:17.729Z,3.53
2017-11-01T06:54:45.240Z,2.10
2017-11-01T06:57:14.278Z,1.93
2017-11-01T06:59:43.130Z,2.20
2017-11-01T07:02:10.627Z,2.43
2017-11-01T07:04:38.124Z,2.20
2017-11-01T07:07:05.620Z,2.10
2017-11-01T07:09:35.910Z,2.53
2017-11-01T07:12:03.404Z,2.53
2017-11-01T07:14:30.941Z,2.20
2017-11-01T07:16:59.207Z,2.33
2017-11-01T07:19:27.484Z,2.57
2017-11-01T07:21:54.992Z,2.00
2017-11-01T07:24:23.285Z,2.20
2017-11-01T07:26:50.774Z,2.40
2017-11-01T07:29:19.429Z,3.20
2017-11-01T07:31:46.920Z,1.63
2017-11-01T07:34:14.432Z,2.20
2017-11-01T07:36:42.327Z,2.20
2017-11-01T07:39:09.843Z,2.03
2017-11-01T07:41:37.350Z,2.13
2017-11-01T07:44:04.872Z,2.27
2017-11-01T07:46:32.363Z,2.10
2017-11-01T07:48:59.875Z,2.00
2017-11-01T07:51:27.363Z,3.03
2017-11-01T07:53:56.226Z,2.70
2017-11-01T07:56:23.728Z,2.47
2017-11-01T07:58:52.008Z,2.43
2017-11-01T08:01:21.003Z,2.33
2017-11-01T08:03:48.532Z,2.40
2017-11-01T08:06:16.457Z,2.10
2017-11-01T08:08:43.979Z,3.30
2017-11-01T08:11:11.488Z,2.03
2017-11-01T08:13:39.040Z,7.67
2017-11-01T08:16:07.315Z,8.60
2017-11-01T08:18:35.600Z,3.13
2017-11-01T08:21:03.868Z,4.83
2017-11-01T08:23:32.893Z,3.00
2017-11-01T08:26:00.392Z,3.13
2017-11-01T08:28:29.990Z,2.70
2017-11-01T08:30:57.492Z,3.80
2017-11-01T08:33:25.400Z,3.30
2017-11-01T08:35:52.910Z,2.60
2017-11-01T08:38:21.943Z,3.67
2017-11-01T08:40:49.443Z,4.37
2017-11-01T08:43:17.331Z,3.77
2017-11-01T08:45:44.830Z,3.90
2017-11-01T08:48:13.687Z,2.57
2017-11-01T08:50:41.580Z,2.60
2017-11-01T08:53:09.080Z,2.30
2017-11-01T08:55:36.579Z,3.20
2017-11-01T08:58:04.897Z,3.13
2017-11-01T09:00:33.438Z,2.63
2017-11-01T09:03:02.291Z,2.87
2017-11-01T09:05:31.611Z,2.33
2017-11-01T09:07:59.519Z,2.93
2017-11-01T09:10:27.043Z,3.23
2017-11-01T09:12:54.583Z,3.13
2017-11-01T09:15:22.502Z,3.53
2017-11-01T09:17:49.991Z,3.07
2017-11-01T09:20:17.503Z,2.93
2017-11-01T09:22:46.526Z,3.20
2017-11-01T09:25:14.052Z,3.40
2017-11-01T09:27:43.114Z,3.00
2017-11-01T09:30:10.644Z,2.90
2017-11-01T09:32:38.156Z,3.57
2017-11-01T09:35:05.679Z,2.67
2017-11-01T09:37:33.177Z,3.30
2017-11-01T09:40:00.881Z,3.10
2017-11-01T09:42:28.405Z,2.97
2017-11-01T09:44:55.923Z,1.97
2017-11-01T09:47:23.828Z,2.67
2017-11-01T09:49:52.110Z,2.53
2017-11-01T09:52:19.604Z,2.13
2017-11-01T09:54:47.878Z,2.60
2017-11-01T09:57:15.389Z,2.83
2017-11-01T09:59:42.912Z,2.70
2017-11-01T10:02:11.196Z,2.73
2017-11-01T10:04:39.489Z,2.20
2017-11-01T10:07:08.149Z,1.87
2017-11-01T10:09:36.085Z,2.70
2017-11-01T10:12:03.591Z,2.80
2017-11-01T10:14:31.135Z,2.83
2017-11-01T10:17:00.738Z,2.40
2017-11-01T10:19:28.281Z,2.80
2017-11-01T10:21:57.141Z,2.90
2017-11-01T10:24:24.663Z,2.50
2017-11-01T10:26:53.295Z,2.27
2017-11-01T10:29:21.587Z,2.23
2017-11-01T10:31:49.082Z,3.10
2017-11-01T10:34:16.610Z,2.33
2017-11-01T10:36:45.263Z,2.17
2017-11-01T10:39:13.548Z,2.87
2017-11-01T10:41:41.864Z,3.07
2017-11-01T10:44:09.384Z,3.93
2017-11-01T10:46:38.035Z,2.60
2017-11-01T10:49:05.551Z,2.83
2017-11-01T10:51:33.819Z,3.40
2017-11-01T10:54:02.864Z,2.60
2017-11-01T10:56:31.264Z,2.60
2017-11-01T10:58:59.259Z,2.20
2017-11-01T11:01:28.111Z,2.43
2017-11-01T11:03:56.972Z,2.60
2017-11-01T11:06:25.239Z,2.23
2017-11-01T11:08:52.761Z,1.90
2017-11-01T11:11:20.283Z,2.03
2017-11-01T11:13:47.787Z,2.57
2017-11-01T11:16:16.084Z,2.80
2017-11-01T11:18:43.585Z,2.20
2017-11-01T11:21:11.108Z,1.77
2017-11-01T11:23:38.799Z,1.93
2017-11-01T11:26:06.461Z,2.53
2017-11-01T11:28:33.993Z,2.67
2017-11-01T11:31:01.525Z,3.23
2017-11-01T11:33:29.790Z,2.90
2017-11-01T11:35:58.093Z,2.50
2017-11-01T11:38:27.100Z,2.40
2017-11-01T11:40:54.632Z,2.10
2017-11-01T11:43:23.270Z,2.70
2017-11-01T11:45:50.805Z,2.73
2017-11-01T11:48:18.368Z,2.93
2017-11-01T11:50:45.909Z,2.80
2017-11-01T11:53:13.421Z,2.63
2017-11-01T11:55:42.075Z,3.00
2017-11-01T11:58:11.096Z,2.67
2017-11-01T12:00:38.627Z,3.90
2017-11-01T12:03:06.151Z,2.83
2017-11-01T12:05:33.696Z,3.57
2017-11-01T12:08:02.709Z,3.63
2017-11-01T12:10:30.640Z,3.50
2017-11-01T12:12:59.512Z,3.23
2017-11-01T12:15:27.622Z,3.37
2017-11-01T12:17:55.901Z,3.30
2017-11-01T12:20:23.425Z,3.23
2017-11-01T12:22:50.996Z,2.70
2017-11-01T12:25:18.919Z,2.83
2017-11-01T12:27:47.330Z,3.50
2017-11-01T12:30:14.849Z,3.20
2017-11-01T12:32:42.871Z,3.20
2017-11-01T12:35:10.379Z,4.57
2017-11-01T12:37:37.887Z,4.50
2017-11-01T12:40:05.419Z,4.10
2017-11-01T12:42:32.939Z,3.93
2017-11-01T12:45:00.535Z,3.43
2017-11-01T12:47:28.054Z,5.20
2017-11-01T12:49:55.657Z,4.73
2017-11-01T12:52:23.179Z,5.07
2017-11-01T12:54:52.188Z,8.60
2017-11-01T12:57:21.035Z,5.80
2017-11-01T12:59:48.536Z,5.60
2017-11-01T13:02:16.038Z,2.27
2017-11-01T13:04:43.539Z,3.00
2017-11-01T13:07:11.100Z,3.17
2017-11-01T13:09:38.768Z,2.80
2017-11-01T13:12:06.279Z,2.90
2017-11-01T13:14:34.363Z,2.70
2017-11-01T13:17:02.632Z,1.63
2017-11-01T13:19:30.911Z,2.53
2017-11-01T13:21:59.294Z,1.80
2017-11-01T13:24:28.206Z,2.13
2017-11-01T13:26:55.707Z,2.23
2017-11-01T13:29:23.226Z,2.73
2017-11-01T13:31:50.760Z,1.80
2017-11-01T13:34:18.254Z,1.90
2017-11-01T13:36:46.687Z,2.10
2017-11-01T13:39:14.355Z,2.10
2017-11-01T13:41:41.855Z,1.80
2017-11-01T13:44:09.472Z,1.70
2017-11-01T13:46:36.966Z,2.00
2017-11-01T13:49:05.243Z,2.27
2017-11-01T13:51:34.450Z,2.70
2017-11-01T13:54:02.156Z,3.10
2017-11-01T13:56:31.161Z,3.10
2017-11-01T13:58:58.657Z,3.80
2017-11-01T14:01:26.359Z,5.23
2017-11-01T14:03:53.862Z,2.80
2017-11-01T14:06:21.370Z,4.80
2017-11-01T14:08:50.270Z,4.00
2017-11-01T14:11:17.787Z,16.03
2017-11-01T14:13:45.464Z,6.47
2017-11-01T14:16:12.976Z,4.63
2017-11-01T14:18:41.255Z,4.33
2017-11-01T14:21:08.788Z,7.57
2017-11-01T14:23:36.298Z,2.50
2017-11-01T14:26:05.158Z,3.00
2017-11-01T14:28:32.881Z,3.07
2017-11-01T14:31:01.157Z,5.03
2017-11-01T14:33:29.420Z,5.60
2017-11-01T14:35:57.324Z,6.03
2017-11-01T14:38:24.843Z,5.63
2017-11-01T14:40:52.368Z,2.87
2017-11-01T14:43:19.887Z,4.17
2017-11-01T14:45:48.177Z,3.33
2017-11-01T14:48:16.457Z,6.20
2017-11-01T14:50:45.306Z,5.90
2017-11-01T14:53:12.820Z,6.90
2017-11-01T14:55:41.150Z,5.83
2017-11-01T14:58:08.678Z,4.77
2017-11-01T15:00:37.548Z,4.23
2017-11-01T15:03:05.051Z,3.60
2017-11-01T15:05:32.553Z,3.13
2017-11-01T15:08:00.829Z,3.73
2017-11-01T15:10:28.349Z,2.97
2017-11-01T15:12:56.626Z,3.10
2017-11-01T15:15:24.534Z,2.63
2017-11-01T15:17:52.980Z,2.90
2017-11-01T15:20:20.910Z,2.00
2017-11-01T15:22:49.182Z,2.13
2017-11-01T15:25:16.675Z,1.73
2017-11-01T15:27:44.576Z,2.30
2017-11-01T15:30:12.859Z,2.27
2017-11-01T15:32:41.706Z,3.30
2017-11-01T15:35:09.223Z,2.10
2017-11-01T15:37:36.730Z,2.40
2017-11-01T15:40:04.637Z,1.97
2017-11-01T15:42:33.495Z,2.30
2017-11-01T15:45:01.012Z,1.90
2017-11-01T15:47:29.667Z,1.70
2017-11-01T15:49:57.563Z,1.83
2017-11-01T15:52:25.130Z,2.30
2017-11-01T15:54:53.412Z,1.90
2017-11-01T15:57:21.138Z,3.40
2017-11-01T15:59:49.410Z,2.67
2017-11-01T16:02:17.688Z,4.13
2017-11-01T16:04:46.710Z,3.17
2017-11-01T16:07:14.221Z,3.47
2017-11-01T16:09:41.824Z,4.90
2017-11-01T16:12:09.327Z,6.40
2017-11-01T16:14:38.340Z,6.40
2017-11-01T16:17:07.371Z,4.33
2017-11-01T16:19:34.884Z,3.10
2017-11-01T16:22:02.392Z,2.63
2017-11-01T16:24:30.299Z,2.20
2017-11-01T16:26:58.575Z,2.23
2017-11-01T16:29:26.844Z,1.90
2017-11-01T16:31:55.258Z,1.80
2017-11-01T16:34:23.319Z,2.17
2017-11-01T16:36:51.383Z,2.30
2017-11-01T16:39:19.276Z,2.80
2017-11-01T16:41:46.779Z,2.07
2017-11-01T16:44:15.790Z,2.60
2017-11-01T16:46:43.696Z,2.97
2017-11-01T16:49:11.963Z,3.60
2017-11-01T16:51:39.467Z,3.30
2017-11-01T16:54:08.263Z,3.77
2017-11-01T16:56:35.777Z,3.87
2017-11-01T16:59:03.260Z,3.80
2017-11-01T17:01:31.540Z,4.33
2017-11-01T17:04:00.415Z,3.80
2017-11-01T17:06:28.700Z,4.00
2017-11-01T17:08:57.495Z,3.83
2017-11-01T17:11:25.032Z,4.23
2017-11-01T17:13:53.669Z,4.53
2017-11-01T17:16:21.172Z,4.43
2017-11-01T17:18:49.805Z,4.80
2017-11-01T17:21:17.311Z,4.30
2017-11-01T17:23:45.719Z,7.00
2017-11-01T17:26:13.224Z,8.83
2017-11-01T17:28:41.137Z,8.90
2017-11-01T17:31:08.652Z,7.60
2017-11-01T17:33:36.168Z,7.47
2017-11-01T17:36:03.674Z,6.87
2017-11-01T17:38:32.697Z,6.17
2017-11-01T17:41:08.779Z,6.10
2017-11-01T17:43:49.797Z,4.43
2017-11-01T17:46:21.634Z,3.50
2017-11-01T17:48:50.761Z,3.60
2017-11-01T17:51:23.173Z,3.07
2017-11-01T17:53:55.319Z,2.60
2017-11-01T17:56:26.893Z,2.97
2017-11-01T17:59:00.478Z,2.60
2017-11-01T18:01:29.583Z,2.73
2017-11-01T18:04:00.934Z,3.20
2017-11-01T18:06:31.364Z,2.60
2017-11-01T18:08:59.259Z,2.50
2017-11-01T18:11:26.911Z,2.87
2017-11-01T18:13:54.407Z,3.00
2017-11-01T18:16:21.895Z,1.87
2017-11-01T18:18:49.901Z,2.43
2017-11-01T18:21:18.177Z,2.33
2017-11-01T18:23:45.835Z,2.60
2017-11-01T18:26:13.330Z,2.67
2017-11-01T18:28:41.363Z,2.63
2017-11-01T18:31:08.863Z,3.50
2017-11-01T18:33:36.469Z,3.03
2017-11-01T18:36:03.973Z,2.90
2017-11-01T18:38:32.249Z,2.93
2017-11-01T18:40:59.746Z,3.60
2017-11-01T18:43:28.641Z,4.23
2017-11-01T18:45:56.130Z,4.50
2017-11-01T18:48:24.070Z,4.53
2017-11-01T18:50:51.572Z,4.40
2017-11-01T18:53:19.067Z,4.30
2017-11-01T18:55:46.955Z,4.60
2017-11-01T18:58:14.438Z,4.13
2017-11-01T19:00:41.936Z,4.53
2017-11-01T19:03:09.599Z,4.30
2017-11-01T19:05:37.257Z,4.07
2017-11-01T19:08:04.932Z,3.77
2017-11-01T19:10:32.438Z,3.63
2017-11-01T19:13:00.735Z,4.17
2017-11-01T19:15:28.996Z,3.90
2017-11-01T19:17:57.277Z,4.60
2017-11-01T19:20:26.281Z,4.40
2017-11-01T19:22:54.199Z,4.67
2017-11-01T19:25:22.467Z,3.73
2017-11-01T19:27:49.984Z,4.60
2017-11-01T19:30:18.979Z,4.60
2017-11-01T19:32:46.491Z,5.00
2017-11-01T19:35:15.133Z,4.60
2017-11-01T19:37:42.648Z,4.77
2017-11-01T19:40:11.517Z,5.53
2017-11-01T19:42:39.431Z,6.47
2017-11-01T19:45:07.706Z,5.47
2017-11-01T19:47:35.228Z,6.27
2017-11-01T19:50:02.739Z,6.40
2017-11-01T19:52:30.266Z,6.80
2017-11-01T19:54:59.287Z,5.90
2017-11-01T19:57:26.817Z,7.27
2017-11-01T19:59:54.337Z,6.67
2017-11-01T20:02:21.851Z,5.53
2017-11-01T20:04:49.352Z,5.20
2017-11-01T20:07:16.875Z,6.10
2017-11-01T20:09:44.367Z,6.17
2017-11-01T20:12:11.960Z,5.30
2017-11-01T20:14:39.467Z,5.63
2017-11-01T20:17:07.744Z,4.00
2017-11-01T20:19:35.264Z,4.97
2017-11-01T20:22:04.116Z,3.47
2017-11-01T20:24:31.626Z,3.60
2017-11-01T20:26:59.123Z,3.70
2017-11-01T20:29:27.375Z,3.10
2017-11-01T20:31:55.264Z,4.47
2017-11-01T20:34:23.541Z,4.17
2017-11-01T20:36:51.047Z,3.97
2017-11-01T20:39:19.691Z,3.50
2017-11-01T20:41:47.187Z,4.03
2017-11-01T20:44:14.687Z,4.03
2017-11-01T20:46:42.218Z,4.30
2017-11-01T20:49:09.721Z,4.77
2017-11-01T20:51:37.224Z,3.40
2017-11-01T20:54:04.725Z,3.70
2017-11-01T20:56:32.616Z,3.70
2017-11-01T20:59:00.132Z,2.97
2017-11-01T21:01:29.137Z,3.77
2017-11-01T21:03:56.632Z,4.00
2017-11-01T21:06:25.470Z,3.60
2017-11-01T21:08:52.982Z,3.37
2017-11-01T21:11:21.986Z,3.90
2017-11-01T21:13:49.483Z,3.10
2017-11-01T21:16:16.984Z,3.10
2017-11-01T21:18:44.486Z,2.90
2017-11-01T21:21:11.991Z,2.50
2017-11-01T21:23:39.487Z,3.30
2017-11-01T21:26:07.384Z,2.53
2017-11-01T21:28:34.876Z,2.50
2017-11-01T21:31:02.859Z,2.43
2017-11-01T21:33:31.136Z,2.27
2017-11-01T21:35:58.633Z,2.50
2017-11-01T21:38:27.524Z,2.50
2017-11-01T21:40:55.026Z,2.70
2017-11-01T21:43:23.915Z,2.17
2017-11-01T21:45:51.419Z,2.47
2017-11-01T21:48:19.708Z,2.43
2017-11-01T21:50:47.974Z,2.30
2017-11-01T21:53:16.851Z,2.10
2017-11-01T21:55:44.352Z,3.30
2017-11-01T21:58:13.012Z,3.20
2017-11-01T22:00:40.507Z,2.90
2017-11-01T22:03:08.801Z,2.70
2017-11-01T22:05:36.299Z,2.93
2017-11-01T22:08:05.329Z,2.97
2017-11-01T22:10:32.826Z,3.03
2017-11-01T22:13:00.351Z,3.10
2017-11-01T22:15:27.878Z,3.40
2017-11-01T22:17:55.404Z,2.43
2017-11-01T22:20:23.666Z,2.87
2017-11-01T22:22:51.167Z,2.87
2017-11-01T22:25:18.660Z,2.67
2017-11-01T22:27:46.156Z,2.53
2017-11-01T22:30:14.427Z,2.63
2017-11-01T22:32:41.918Z,2.37
2017-11-01T22:35:10.771Z,2.90
2017-11-01T22:37:38.276Z,2.53
2017-11-01T22:40:07.287Z,2.80
2017-11-01T22:42:34.833Z,3.50
2017-11-01T22:45:02.337Z,2.90
2017-11-01T22:47:29.832Z,3.20
2017-11-01T22:49:57.323Z,2.80
2017-11-01T22:52:25.579Z,2.50
2017-11-01T22:54:54.209Z,2.70
2017-11-01T22:57:21.707Z,3.20
2017-11-01T22:59:49.200Z,3.43
2017-11-01T23:02:16.707Z,3.07
2017-11-01T23:04:44.217Z,2.40
2017-11-01T23:07:11.724Z,3.33
2017-11-01T23:09:39.216Z,3.50
2017-11-01T23:12:06.715Z,2.63
2017-11-01T23:14:34.229Z,2.90
2017-11-01T23:17:01.719Z,2.90
2017-11-01T23:19:29.610Z,3.53
2017-11-01T23:21:57.112Z,3.30
2017-11-01T23:24:24.612Z,3.63
2017-11-01T23:26:52.111Z,3.67
2017-11-01T23:29:20.395Z,2.60
2017-11-01T23:31:47.892Z,2.80
2017-11-01T23:34:15.424Z,3.10
2017-11-01T23:36:42.944Z,2.57
2017-11-01T23:39:11.226Z,3.40
2017-11-01T23:41:38.719Z,3.67
2017-11-01T23:44:06.245Z,2.60
2017-11-01T23:46:33.742Z,3.43
2017-11-01T23:49:01.266Z,3.27
2017-11-01T23:51:28.772Z,2.17
2017-11-01T23:53:56.291Z,3.17
2017-11-01T23:56:23.875Z,2.60
2017-11-01T23:58:51.389Z,2.60
